Terminal Aerodrome Forecast
Issued by NWS

Home | Current Version | Previous Version | Text Only | Print | Product List | Glossary On
Versions: 1 2 3 4 5 6 7 8 9 10 11 12
000
FTUS43 KICT 221100
TAFSLN
TAF
KSLN 221135Z 2212/2312 18008KT P6SM SCT250
     FM230600 VRB05KT P6SM SCT100 BKN250
     FM230900 08010KT P6SM BKN015=

USA.gov is the U.S. government's official web portal to all federal, state and local government web resources and services.